Time;durP1;ratioP1;P1;durP2;ratioP2;P2;SDS_P1;SDS_P2;PMS_P1;PMS_P2;Temp;Humidity;BMP_temperature;BMP_pressure;BME280_temperature;BME280_humidity;BME280_pressure;Samples;Min_cycle;Max_cycle;Signal;HPM_P1;HPM_P2
2024/04/01 00:00:11;;;;;;;5.80;2.40;;;;;;;15.46;51.77;93549.91;521931;28;919;-71
2024/04/01 00:00:26;;;;;;;5.03;2.30;;;;;;;15.46;51.82;93558.25;522021;28;894;-71
2024/04/01 00:00:42;;;;;;;4.00;2.20;;;;;;;15.47;51.61;93556.19;522010;28;859;-71
2024/04/01 00:01:02;;;;;;;6.10;2.40;;;;;;;15.48;51.78;93557.69;522029;28;808;-71
2024/04/01 00:01:17;;;;;;;5.57;2.33;;;;;;;15.48;51.60;93558.41;521116;28;1816;-71
2024/04/01 00:01:32;;;;;;;5.80;2.30;;;;;;;15.49;51.56;93548.00;521982;28;789;-71
2024/04/01 00:01:48;;;;;;;7.63;2.40;;;;;;;15.49;51.37;93554.31;520186;28;801;-71
2024/04/01 00:02:03;;;;;;;7.70;2.27;;;;;;;15.51;51.39;93556.50;519962;28;781;-71
2024/04/01 00:02:19;;;;;;;5.63;2.20;;;;;;;15.51;51.86;93559.28;521631;28;765;-71
2024/04/01 00:02:34;;;;;;;3.87;2.07;;;;;;;15.46;52.21;93547.13;521962;28;867;-71
2024/04/01 00:02:51;;;;;;;5.32;2.30;;;;;;;15.41;52.29;93555.69;521834;28;1143;-71
2024/04/01 00:03:06;;;;;;;8.73;2.67;;;;;;;15.35;52.10;93558.03;521992;28;927;-71
2024/04/01 00:03:22;;;;;;;8.27;2.50;;;;;;;15.33;51.99;93558.59;522032;28;872;-71
2024/04/01 00:03:37;;;;;;;6.27;2.10;;;;;;;15.33;52.12;93560.66;522019;28;836;-72
2024/04/01 00:03:55;;;;;;;5.37;2.10;;;;;;;15.33;51.99;93560.66;521022;28;1709;-71
2024/04/01 00:04:11;;;;;;;3.85;2.00;;;;;;;15.33;52.08;93557.84;520314;28;852;-71
2024/04/01 00:04:26;;;;;;;3.75;2.13;;;;;;;15.32;51.87;93554.34;521355;28;905;-71
2024/04/01 00:04:41;;;;;;;4.17;2.13;;;;;;;15.33;51.92;93552.28;521990;28;829;-71
2024/04/01 00:04:57;;;;;;;5.68;1.98;;;;;;;15.33;51.96;93558.59;522071;28;903;-73
2024/04/01 00:05:12;;;;;;;4.63;1.77;;;;;;;15.34;52.09;93559.31;521988;28;793;-71
2024/04/01 00:05:28;;;;;;;5.25;1.98;;;;;;;15.35;52.09;93555.22;521970;28;780;-71
2024/04/01 00:05:52;;;;;;;6.53;1.93;;;;;;;15.32;52.22;93561.94;522014;28;844;-71
2024/04/01 00:06:08;;;;;;;6.13;2.17;;;;;;;15.27;52.70;93549.75;520323;28;1046;-71
2024/04/01 00:06:23;;;;;;;8.00;2.47;;;;;;;15.23;52.62;93549.44;522002;28;848;-72
2024/04/01 00:06:39;;;;;;;5.70;2.27;;;;;;;15.14;52.79;93553.66;521922;28;855;-71
2024/04/01 00:06:54;;;;;;;4.40;2.00;;;;;;;15.09;52.84;93556.69;521877;28;776;-71
2024/04/01 00:07:09;;;;;;;5.13;2.00;;;;;;;14.97;53.20;93559.25;521907;28;757;-71
2024/04/01 00:07:25;;;;;;;4.40;2.13;;;;;;;14.82;53.35;93551.09;522047;28;833;-71
2024/04/01 00:07:41;;;;;;;4.28;2.05;;;;;;;14.71;53.61;93561.97;521858;28;1006;-71
2024/04/01 00:07:57;;;;;;;4.07;1.75;;;;;;;14.67;53.76;93559.59;522043;28;875;-71
2024/04/01 00:08:12;;;;;;;4.57;1.88;;;;;;;14.63;53.95;93561.31;521898;28;887;-71
2024/04/01 00:08:28;;;;;;;4.97;2.03;;;;;;;14.55;54.45;93563.44;521201;28;1713;-71
2024/04/01 00:08:43;;;;;;;5.65;2.38;;;;;;;14.50;54.32;93564.44;520841;28;1769;-71
2024/04/01 00:08:59;;;;;;;6.13;2.77;;;;;;;14.45;54.28;93557.81;521114;28;804;-71
2024/04/01 00:09:14;;;;;;;5.50;2.87;;;;;;;14.39;54.52;93554.53;519883;28;1016;-71
2024/04/01 00:09:30;;;;;;;10.85;6.10;;;;;;;14.39;54.41;93560.84;520530;28;1099;-71
2024/04/01 00:09:48;;;;;;;14.77;8.88;;;;;;;14.40;54.54;93558.81;522063;28;855;-71
2024/04/01 00:10:05;;;;;;;10.75;7.00;;;;;;;14.41;54.69;93560.25;521870;28;1996;-71
2024/04/01 00:10:21;;;;;;;10.70;5.50;;;;;;;14.44;54.51;93556.34;521988;28;907;-71
2024/04/01 00:10:38;;;;;;;11.50;5.35;;;;;;;14.48;54.41;93561.47;521958;28;917;-71
2024/04/01 00:10:53;;;;;;;9.90;5.03;;;;;;;14.52;54.63;93565.31;521965;28;931;-73
2024/04/01 00:11:09;;;;;;;7.45;3.17;;;;;;;14.55;54.53;93560.69;521563;28;1409;-74
2024/04/01 00:11:24;;;;;;;5.37;1.90;;;;;;;14.58;54.19;93556.72;520982;28;757;-72
2024/04/01 00:11:39;;;;;;;4.63;1.60;;;;;;;14.60;54.06;93557.63;520304;28;789;-71
2024/04/01 00:11:55;;;;;;;5.00;1.63;;;;;;;14.63;54.06;93556.50;521998;28;828;-74
2024/04/01 00:12:10;;;;;;;5.50;1.77;;;;;;;14.66;53.81;93555.34;521832;28;800;-74
2024/04/01 00:12:26;;;;;;;5.95;1.90;;;;;;;14.69;53.75;93554.22;519991;28;802;-74
2024/04/01 00:12:41;;;;;;;7.77;2.30;;;;;;;14.71;53.82;93554.38;520899;28;1073;-74
2024/04/01 00:12:59;;;;;;;7.45;2.20;;;;;;;14.74;53.85;93556.00;521833;28;792;-74
2024/04/01 00:13:16;;;;;;;7.05;2.22;;;;;;;14.78;53.81;93550.03;521898;28;898;-72
2024/04/01 00:13:31;;;;;;;6.45;2.20;;;;;;;14.80;53.88;93544.63;521886;28;958;-72
2024/04/01 00:13:46;;;;;;;6.27;2.30;;;;;;;14.81;53.81;93552.38;521596;28;1742;-72
2024/04/01 00:14:02;;;;;;;6.82;2.50;;;;;;;14.82;53.64;93551.09;521621;28;1068;-72
2024/04/01 00:14:17;;;;;;;6.07;2.23;;;;;;;14.85;53.77;93555.50;521638;28;1104;-73
2024/04/01 00:14:33;;;;;;;5.85;2.20;;;;;;;14.81;53.56;93546.81;521874;28;816;-72
2024/04/01 00:14:48;;;;;;;5.00;2.20;;;;;;;14.89;53.75;93549.53;521808;28;880;-70
2024/04/01 00:15:04;;;;;;;3.63;1.83;;;;;;;14.90;53.76;93548.22;521880;28;844;-70
2024/04/01 00:15:21;;;;;;;3.42;1.67;;;;;;;14.91;53.89;93553.22;523915;28;855;-70
2024/04/01 00:15:39;;;;;;;4.93;2.10;;;;;;;14.92;54.28;93554.66;523797;28;936;-72
2024/04/01 00:15:54;;;;;;;6.63;2.28;;;;;;;14.92;54.18;93559.50;522662;28;1029;-74
2024/04/01 00:16:10;;;;;;;9.50;2.70;;;;;;;14.92;54.18;93554.66;521822;28;884;-74
2024/04/01 00:16:25;;;;;;;8.43;3.20;;;;;;;14.90;54.09;93551.00;521617;28;1797;-74
2024/04/01 00:16:41;;;;;;;6.97;3.57;;;;;;;14.85;54.21;93555.50;523029;28;796;-74
2024/04/01 00:16:57;;;;;;;7.88;3.58;;;;;;;14.85;54.02;93560.31;523807;28;903;-74
2024/04/01 00:17:12;;;;;;;8.25;3.50;;;;;;;14.85;54.11;93560.31;521905;28;895;-73
2024/04/01 00:17:28;;;;;;;7.70;2.97;;;;;;;14.84;53.83;93558.84;521981;28;1159;-72
2024/04/01 00:17:43;;;;;;;6.70;2.70;;;;;;;14.80;53.69;93559.28;521927;28;749;-72
2024/04/01 00:17:59;;;;;;;7.67;2.73;;;;;;;14.80;53.80;93564.81;522023;28;769;-72
2024/04/01 00:18:14;;;;;;;6.78;2.60;;;;;;;14.81;53.85;93560.00;522057;28;871;-73
2024/04/01 00:18:29;;;;;;;5.37;2.60;;;;;;;14.80;53.74;93567.59;521974;28;904;-72
2024/04/01 00:18:45;;;;;;;5.30;2.47;;;;;;;14.82;53.88;93567.75;520312;28;895;-72
2024/04/01 00:19:01;;;;;;;4.95;2.47;;;;;;;14.82;53.79;93562.22;519830;28;837;-72
2024/04/01 00:19:16;;;;;;;5.80;2.53;;;;;;;14.83;53.74;93565.72;521500;28;1080;-73
2024/04/01 00:19:31;;;;;;;6.20;2.53;;;;;;;14.82;53.70;93565.00;522090;28;852;-72
2024/04/01 00:19:47;;;;;;;5.33;2.57;;;;;;;14.83;53.63;93562.94;522060;28;765;-73
2024/04/01 00:20:03;;;;;;;5.18;2.30;;;;;;;14.61;53.57;93534.13;522002;28;860;-72
2024/04/01 00:20:18;;;;;;;5.30;2.13;;;;;;;14.84;53.52;93564.41;521977;28;879;-72
2024/04/01 00:20:34;;;;;;;6.13;2.40;;;;;;;14.83;53.55;93568.50;522014;28;836;-72
2024/04/01 00:20:56;;;;;;;6.03;2.20;;;;;;;14.84;53.36;93561.63;521850;28;1073;-70
2024/04/01 00:21:12;;;;;;;5.90;2.20;;;;;;;14.84;53.09;93562.38;520876;28;1749;-70
2024/04/01 00:21:27;;;;;;;7.03;2.47;;;;;;;14.83;52.96;93569.25;520534;28;1522;-70
2024/04/01 00:21:43;;;;;;;7.80;2.80;;;;;;;14.82;52.99;93562.22;521232;28;772;-71
2024/04/01 00:21:58;;;;;;;7.57;2.47;;;;;;;14.82;52.82;93567.75;521822;28;1030;-69
2024/04/01 00:22:14;;;;;;;5.95;2.20;;;;;;;14.82;52.85;93569.81;520644;28;883;-70
2024/04/01 00:22:29;;;;;;;5.77;2.40;;;;;;;14.79;52.90;93568.91;521247;28;1075;-69
2024/04/01 00:22:45;;;;;;;5.18;2.33;;;;;;;14.80;52.99;93575.94;521987;28;805;-70
2024/04/01 00:23:00;;;;;;;5.57;2.37;;;;;;;14.77;53.07;93574.31;521809;28;880;-70
2024/04/01 00:23:16;;;;;;;5.95;2.47;;;;;;;14.71;53.17;93568.25;521909;28;824;-72
2024/04/01 00:23:31;;;;;;;4.63;2.47;;;;;;;14.66;53.58;93566.47;521886;28;769;-70
2024/04/01 00:23:49;;;;;;;4.47;2.42;;;;;;;14.59;53.59;93564.50;522024;28;820;-70
2024/04/01 00:24:04;;;;;;;5.05;2.50;;;;;;;14.57;53.86;93561.56;521723;28;1120;-70
2024/04/01 00:24:20;;;;;;;7.15;2.53;;;;;;;14.26;53.76;93518.72;521951;28;964;-70
2024/04/01 00:24:35;;;;;;;9.70;2.70;;;;;;;14.50;54.04;93561.66;521980;28;891;-70
2024/04/01 00:24:51;;;;;;;10.10;2.87;;;;;;;14.37;54.43;93568.25;521927;28;820;-70
2024/04/01 00:25:06;;;;;;;7.82;2.92;;;;;;;14.03;54.63;93527.28;522003;28;784;-70
2024/04/01 00:25:22;;;;;;;6.67;3.27;;;;;;;14.24;54.92;93563.72;521920;28;853;-70
2024/04/01 00:25:37;;;;;;;7.93;3.80;;;;;;;14.20;55.26;93562.66;521439;28;1444;-70
2024/04/01 00:25:53;;;;;;;8.03;3.93;;;;;;;14.18;55.31;93562.50;521424;28;807;-70
2024/04/01 00:26:09;;;;;;;9.68;4.32;;;;;;;14.18;55.40;93568.06;521847;28;856;-72
2024/04/01 00:26:24;;;;;;;11.90;3.95;;;;;;;14.16;55.43;93563.06;519937;28;797;-72
2024/04/01 00:26:39;;;;;;;9.13;3.03;;;;;;;14.08;56.01;93567.19;520024;28;753;-71
2024/04/01 00:26:55;;;;;;;5.43;2.80;;;;;;;14.02;56.04;93563.94;521992;28;986;-71
2024/04/01 00:27:11;;;;;;;4.78;2.80;;;;;;;14.01;55.77;93568.03;522038;28;852;-71
2024/04/01 00:27:26;;;;;;;5.85;2.92;;;;;;;14.03;55.93;93570.97;521808;28;1070;-71
2024/04/01 00:27:42;;;;;;;7.40;3.20;;;;;;;14.04;55.93;93566.88;521871;28;792;-71
2024/04/01 00:27:57;;;;;;;7.65;3.17;;;;;;;14.05;55.88;93558.00;521917;28;1046;-71
2024/04/01 00:28:13;;;;;;;6.73;2.70;;;;;;;14.09;55.98;93569.44;522029;28;781;-71
2024/04/01 00:28:28;;;;;;;6.13;2.63;;;;;;;14.10;56.01;93562.56;520960;28;1789;-71
2024/04/01 00:28:44;;;;;;;5.97;2.60;;;;;;;14.13;56.01;93566.25;521750;28;900;-71
2024/04/01 00:28:59;;;;;;;5.37;2.30;;;;;;;14.14;56.07;93562.16;521634;28;1063;-71
2024/04/01 00:29:14;;;;;;;6.53;2.63;;;;;;;14.16;56.03;93565.13;522017;28;820;-71
2024/04/01 00:29:30;;;;;;;8.63;3.10;;;;;;;14.16;56.29;93567.88;521993;28;769;-71
2024/04/01 00:29:45;;;;;;;6.75;2.60;;;;;;;14.14;56.41;93562.88;522014;28;754;-71
2024/04/01 00:30:03;;;;;;;4.83;2.00;;;;;;;14.11;56.36;93557.75;522055;28;819;-71
2024/04/01 00:30:18;;;;;;;4.65;2.00;;;;;;;14.09;56.17;93557.59;521894;28;1914;-71
2024/04/01 00:30:34;;;;;;;4.80;2.22;;;;;;;14.02;56.12;93555.59;521700;28;953;-71
2024/04/01 00:30:50;;;;;;;4.35;2.25;;;;;;;13.98;56.20;93555.28;521786;28;841;-71
2024/04/01 00:31:05;;;;;;;6.27;2.43;;;;;;;13.98;56.12;93556.00;521809;28;757;-71
2024/04/01 00:31:29;;;;;;;9.43;2.60;;;;;;;13.99;56.07;93559.53;520751;28;1694;-71
2024/04/01 00:31:44;;;;;;;7.40;2.60;;;;;;;13.98;55.87;93566.38;520292;28;918;-70
2024/04/01 00:32:00;;;;;;;6.22;2.42;;;;;;;13.98;55.83;93567.13;521649;28;827;-70
2024/04/01 00:32:15;;;;;;;4.43;2.30;;;;;;;13.97;55.80;93565.63;521696;28;1013;-70
2024/04/01 00:32:32;;;;;;;4.50;2.47;;;;;;;13.99;56.08;93565.09;521964;28;777;-70
2024/04/01 00:32:48;;;;;;;6.25;2.60;;;;;;;13.97;56.37;93554.53;521976;28;914;-70
2024/04/01 00:33:03;;;;;;;5.67;2.37;;;;;;;13.90;56.83;93562.94;521874;28;788;-70
2024/04/01 00:33:19;;;;;;;5.57;2.00;;;;;;;13.83;56.78;93558.91;521343;28;820;-70
2024/04/01 00:33:34;;;;;;;7.70;2.50;;;;;;;13.79;56.72;93560.63;519932;28;998;-70
2024/04/01 00:33:50;;;;;;;6.57;2.42;;;;;;;13.74;56.75;93561.56;520972;28;1100;-70
2024/04/01 00:34:05;;;;;;;4.50;2.00;;;;;;;13.67;56.73;93555.53;521859;28;838;-70
2024/04/01 00:34:21;;;;;;;3.83;2.20;;;;;;;13.62;56.76;93553.69;521973;28;834;-70
2024/04/01 00:34:36;;;;;;;4.23;2.67;;;;;;;13.59;56.84;93557.63;521934;28;915;-70
2024/04/01 00:34:52;;;;;;;6.00;2.63;;;;;;;13.57;57.06;93557.44;521914;28;752;-70
2024/04/01 00:35:09;;;;;;;6.77;2.63;;;;;;;13.55;57.07;93560.06;521136;28;1753;-70
2024/04/01 00:35:25;;;;;;;5.78;2.53;;;;;;;13.57;57.05;93557.44;521816;28;1068;-70
2024/04/01 00:35:40;;;;;;;5.90;2.33;;;;;;;13.58;57.10;93558.16;521895;28;859;-70
2024/04/01 00:35:56;;;;;;;7.32;2.60;;;;;;;13.61;56.95;93557.78;521901;28;1015;-70
2024/04/01 00:36:11;;;;;;;7.13;2.97;;;;;;;13.64;57.11;93564.25;521904;28;823;-70
2024/04/01 00:36:27;;;;;;;8.53;3.27;;;;;;;13.64;57.12;93561.47;521975;28;880;-70
2024/04/01 00:36:42;;;;;;;8.20;3.70;;;;;;;13.66;56.93;93562.34;521926;28;974;-70
2024/04/01 00:36:58;;;;;;;7.20;4.03;;;;;;;13.67;56.98;93561.06;521796;28;1057;-70
2024/04/01 00:37:14;;;;;;;9.93;4.55;;;;;;;13.61;56.81;93551.50;521848;28;839;-70
2024/04/01 00:37:29;;;;;;;12.23;4.43;;;;;;;13.58;56.57;93547.81;522004;28;773;-70
2024/04/01 00:37:44;;;;;;;11.37;3.57;;;;;;;13.68;56.68;93561.81;521958;28;860;-70
2024/04/01 00:38:00;;;;;;;9.82;2.80;;;;;;;13.70;56.70;93570.31;521972;28;854;-70
2024/04/01 00:38:15;;;;;;;6.30;2.47;;;;;;;13.71;56.66;93562.72;521972;28;844;-70
2024/04/01 00:38:31;;;;;;;6.47;2.80;;;;;;;13.72;56.79;93564.19;521922;28;781;-70
2024/04/01 00:38:46;;;;;;;8.57;2.97;;;;;;;13.74;56.79;93561.56;521820;28;1112;-70
2024/04/01 00:39:02;;;;;;;8.17;2.80;;;;;;;13.73;56.83;93557.34;521932;28;931;-70
2024/04/01 00:39:17;;;;;;;7.95;2.80;;;;;;;13.74;56.84;93570.63;520991;28;1678;-70
2024/04/01 00:39:33;;;;;;;7.73;2.80;;;;;;;13.75;56.80;93561.03;520211;28;839;-70
2024/04/01 00:39:48;;;;;;;5.43;2.50;;;;;;;13.75;56.98;93563.06;521439;28;782;-70
2024/04/01 00:40:04;;;;;;;4.65;2.50;;;;;;;13.74;56.99;93569.91;521843;28;836;-70
2024/04/01 00:40:20;;;;;;;5.25;2.45;;;;;;;13.75;56.90;93572.13;521661;28;983;-70
2024/04/01 00:40:35;;;;;;;6.82;2.40;;;;;;;13.76;56.70;93565.25;521925;28;1053;-70
2024/04/01 00:40:51;;;;;;;8.17;2.73;;;;;;;13.79;56.85;93563.38;521990;28;838;-70
2024/04/01 00:41:06;;;;;;;6.47;2.97;;;;;;;13.79;56.83;93566.91;521924;28;852;-72
2024/04/01 00:41:22;;;;;;;6.23;2.57;;;;;;;13.57;56.84;93534.53;521750;28;1106;-70
2024/04/01 00:41:38;;;;;;;8.20;2.55;;;;;;;13.80;56.88;93564.84;521988;28;883;-70
2024/04/01 00:41:53;;;;;;;6.70;2.80;;;;;;;13.80;56.84;93567.63;521199;28;1713;-70
2024/04/01 00:42:09;;;;;;;5.27;2.47;;;;;;;13.80;56.76;93559.31;520985;28;876;-70
2024/04/01 00:42:24;;;;;;;5.47;2.33;;;;;;;13.80;56.70;93568.38;520852;28;1078;-70
2024/04/01 00:42:40;;;;;;;7.10;2.83;;;;;;;13.81;56.73;93563.56;519862;28;789;-70
2024/04/01 00:43:08;;;;;;;7.83;3.00;;;;;;;13.77;56.95;93566.00;520708;28;796;-70
2024/04/01 00:43:25;;;;;;;7.53;2.97;;;;;;;13.73;57.09;93563.59;521972;28;832;-70
2024/04/01 00:43:41;;;;;;;6.80;2.97;;;;;;;13.70;57.32;93567.53;521999;28;1155;-70
2024/04/01 00:43:56;;;;;;;5.73;2.73;;;;;;;13.68;57.29;93567.34;521867;28;871;-70
2024/04/01 00:44:12;;;;;;;6.18;2.90;;;;;;;13.65;57.23;93568.47;522004;28;753;-70
2024/04/01 00:44:27;;;;;;;8.13;3.27;;;;;;;13.61;57.41;93557.78;522003;28;808;-70
2024/04/01 00:44:42;;;;;;;7.33;2.93;;;;;;;13.57;57.58;93567.81;522008;28;832;-70
2024/04/01 00:44:58;;;;;;;6.93;2.40;;;;;;;13.55;57.64;93556.53;521952;28;860;-70
2024/04/01 00:45:14;;;;;;;9.03;2.57;;;;;;;13.55;57.72;93562.84;521753;28;1068;-70
2024/04/01 00:45:29;;;;;;;8.85;2.90;;;;;;;13.41;57.83;93544.25;521932;28;757;-70
2024/04/01 00:45:46;;;;;;;5.63;2.63;;;;;;;13.55;58.23;93564.88;521030;28;1732;-71
2024/04/01 00:46:01;;;;;;;6.20;2.80;;;;;;;13.51;58.12;93559.69;519841;28;946;-70
2024/04/01 00:46:18;;;;;;;5.53;2.63;;;;;;;13.53;58.29;93567.47;521781;28;750;-70
2024/04/01 00:46:33;;;;;;;6.03;2.55;;;;;;;13.53;58.25;93559.88;521971;28;832;-70
2024/04/01 00:46:50;;;;;;;7.13;2.93;;;;;;;13.56;58.24;93566.31;521086;28;1025;-70
2024/04/01 00:47:05;;;;;;;5.82;2.55;;;;;;;13.56;58.13;93561.53;521866;28;830;-70
2024/04/01 00:47:21;;;;;;;5.03;2.47;;;;;;;13.58;58.17;93567.22;521919;28;809;-70
2024/04/01 00:47:37;;;;;;;6.10;2.87;;;;;;;13.59;58.08;93560.41;521946;28;812;-70
2024/04/01 00:47:52;;;;;;;5.28;2.92;;;;;;;13.60;58.40;93572.94;521851;28;1009;-70
2024/04/01 00:48:08;;;;;;;5.87;3.13;;;;;;;13.58;58.57;93572.78;520546;28;1408;-70
2024/04/01 00:48:24;;;;;;;9.18;3.17;;;;;;;13.60;58.42;93569.44;520879;28;1679;-70
2024/04/01 00:48:39;;;;;;;8.48;3.05;;;;;;;13.55;58.53;93564.88;521699;28;761;-70
2024/04/01 00:48:55;;;;;;;6.80;3.60;;;;;;;13.60;58.40;93575.72;521679;28;998;-70
2024/04/01 00:49:11;;;;;;;8.43;4.35;;;;;;;13.59;58.35;93571.50;521711;28;840;-70
2024/04/01 00:49:26;;;;;;;8.40;4.72;;;;;;;13.59;58.11;93571.50;521747;28;908;-70
2024/04/01 00:49:42;;;;;;;10.00;4.73;;;;;;;13.61;58.21;93568.16;521741;28;943;-70
2024/04/01 00:49:57;;;;;;;10.68;5.05;;;;;;;13.59;57.65;93565.94;520818;28;1093;-70
2024/04/01 00:50:13;;;;;;;9.57;5.00;;;;;;;13.56;57.78;93564.28;519816;28;1977;-70
2024/04/01 00:50:29;;;;;;;9.85;4.90;;;;;;;13.52;57.75;93572.28;520967;28;781;-71
2024/04/01 00:50:49;;;;;;;9.45;5.13;;;;;;;13.35;57.53;93549.28;521767;28;1143;-70
2024/04/01 00:51:05;;;;;;;10.32;4.88;;;;;;;13.55;57.57;93576.72;521633;28;1211;-71
2024/04/01 00:51:20;;;;;;;10.50;4.80;;;;;;;13.56;57.36;93571.88;521722;28;852;-70
2024/04/01 00:51:37;;;;;;;9.03;4.77;;;;;;;13.55;57.46;93573.94;521500;28;1056;-70
2024/04/01 00:51:53;;;;;;;7.13;4.60;;;;;;;13.57;57.23;93568.56;521350;28;1691;-70
2024/04/01 00:52:09;;;;;;;7.95;4.47;;;;;;;13.51;57.69;93573.56;521541;28;888;-70
2024/04/01 00:52:25;;;;;;;12.02;4.28;;;;;;;13.46;57.82;93569.00;521733;28;894;-70
2024/04/01 00:52:41;;;;;;;11.30;4.45;;;;;;;13.38;57.94;93571.06;521685;28;840;-70
2024/04/01 00:52:56;;;;;;;9.43;4.88;;;;;;;13.27;57.98;93568.00;520805;28;982;-70
2024/04/01 00:53:12;;;;;;;9.77;4.73;;;;;;;13.22;58.44;93575.25;520432;28;1014;-70
2024/04/01 00:53:28;;;;;;;9.30;4.82;;;;;;;13.18;58.55;93576.91;521731;28;797;-70
2024/04/01 00:53:44;;;;;;;12.63;4.97;;;;;;;13.15;58.61;93572.50;521804;28;811;-70
2024/04/01 00:54:00;;;;;;;12.25;4.70;;;;;;;13.10;58.93;93579.75;521616;28;960;-70
2024/04/01 00:54:16;;;;;;;10.57;4.45;;;;;;;13.09;58.78;93575.50;519683;28;898;-70
2024/04/01 00:54:32;;;;;;;10.63;4.60;;;;;;;13.08;59.12;93568.47;519663;28;738;-70
2024/04/01 00:54:48;;;;;;;8.38;4.63;;;;;;;13.05;59.31;93566.81;519623;28;1069;-70
2024/04/01 00:55:03;;;;;;;7.53;4.80;;;;;;;13.04;59.41;93573.63;519657;28;820;-70
2024/04/01 00:55:20;;;;;;;8.48;4.68;;;;;;;13.04;59.41;93568.09;520398;28;828;-70
2024/04/01 00:55:37;;;;;;;9.93;4.53;;;;;;;12.79;59.21;93534.03;519716;28;797;-70
2024/04/01 00:55:53;;;;;;;8.32;4.50;;;;;;;13.08;59.20;93567.75;519693;28;943;-70
2024/04/01 00:56:09;;;;;;;9.25;3.83;;;;;;;13.10;59.06;93568.66;520616;28;1101;-70
2024/04/01 00:56:25;;;;;;;9.68;3.55;;;;;;;13.13;59.08;93567.50;521175;28;1714;-70
2024/04/01 00:56:44;;;;;;;7.70;3.50;;;;;;;13.17;59.05;93567.88;521548;28;873;-70
2024/04/01 00:56:59;;;;;;;5.60;3.03;;;;;;;13.22;58.85;93566.19;521563;28;956;-70
2024/04/01 00:57:15;;;;;;;7.10;2.70;;;;;;;13.21;58.78;93567.50;521629;28;867;-70
2024/04/01 00:57:30;;;;;;;6.88;2.55;;;;;;;13.17;58.93;93556.78;520883;28;1539;-70
2024/04/01 00:57:46;;;;;;;5.22;2.47;;;;;;;13.21;59.01;93567.50;521728;28;844;-70
2024/04/01 00:58:02;;;;;;;6.45;2.70;;;;;;;13.15;59.01;93562.16;521533;28;1125;-70
2024/04/01 00:58:18;;;;;;;5.77;2.83;;;;;;;12.97;59.06;93538.41;519747;28;929;-71
2024/04/01 00:58:34;;;;;;;6.53;2.90;;;;;;;13.06;59.22;93559.97;519623;28;1026;-70
2024/04/01 00:58:51;;;;;;;8.45;3.38;;;;;;;13.14;59.36;93565.50;519659;28;911;-70
2024/04/01 00:59:07;;;;;;;8.80;3.63;;;;;;;13.13;59.49;93561.22;519364;28;1826;-70
2024/04/01 00:59:23;;;;;;;8.85;3.92;;;;;;;13.12;59.59;93563.28;520383;28;781;-70
2024/04/01 00:59:39;;;;;;;8.07;3.97;;;;;;;13.11;59.40;93566.59;521374;28;961;-69
2024/04/01 00:59:54;;;;;;;6.68;3.45;;;;;;;13.12;59.32;93563.28;521405;28;899;-70
2024/04/01 01:00:10;;;;;;;6.82;3.15;;;;;;;13.14;59.45;93566.22;521488;28;906;-70
2024/04/01 01:00:26;;;;;;;6.80;2.90;;;;;;;13.16;59.31;93576.75;521750;28;789;-69
2024/04/01 01:00:42;;;;;;;5.97;2.88;;;;;;;13.15;59.40;93566.94;521877;28;1004;-69
2024/04/01 01:00:57;;;;;;;8.75;3.05;;;;;;;13.10;59.36;93557.56;521864;28;918;-70
2024/04/01 01:01:14;;;;;;;8.45;3.20;;;;;;;13.22;59.21;93575.25;521785;28;947;-70
2024/04/01 01:01:31;;;;;;;8.73;3.50;;;;;;;13.23;59.33;93576.69;519870;28;822;-69
2024/04/01 01:01:47;;;;;;;7.80;3.70;;;;;;;13.28;59.42;93583.31;519674;28;876;-70
2024/04/01 01:02:03;;;;;;;8.65;3.85;;;;;;;13.29;59.41;93580.00;519931;28;2004;-70
2024/04/01 01:02:19;;;;;;;10.27;4.00;;;;;;;13.30;59.58;93572.41;521596;28;919;-69
2024/04/01 01:02:34;;;;;;;8.88;4.15;;;;;;;13.30;59.36;93575.91;519738;28;1027;-70
2024/04/01 01:02:50;;;;;;;7.43;4.10;;;;;;;13.30;59.34;93577.94;518037;28;1137;-70
2024/04/01 01:03:07;;;;;;;6.63;4.00;;;;;;;13.30;58.95;93573.16;517583;28;852;-70
2024/04/01 01:03:22;;;;;;;8.10;3.97;;;;;;;13.30;58.87;93578.69;517564;28;845;-70
2024/04/01 01:03:38;;;;;;;9.60;3.97;;;;;;;13.32;58.70;93578.16;518369;28;868;-70
2024/04/01 01:03:54;;;;;;;10.02;3.92;;;;;;;13.33;58.57;93577.59;519137;28;1705;-70
2024/04/01 01:04:09;;;;;;;8.27;4.07;;;;;;;13.32;58.37;93581.63;519173;28;869;-70
2024/04/01 01:04:25;;;;;;;7.20;4.10;;;;;;;13.33;58.30;93574.06;519622;28;813;-70
2024/04/01 01:04:41;;;;;;;7.03;4.10;;;;;;;13.32;58.11;93576.09;518096;28;1798;-69
2024/04/01 01:04:57;;;;;;;9.38;4.55;;;;;;;13.33;58.01;93574.81;520358;28;879;-70
2024/04/01 01:05:15;;;;;;;9.07;4.10;;;;;;;13.34;57.75;93578.31;521633;28;895;-70
2024/04/01 01:05:32;;;;;;;10.30;3.90;;;;;;;13.35;57.89;93579.78;519558;28;1090;-70
2024/04/01 01:05:48;;;;;;;10.02;3.75;;;;;;;13.37;57.78;93585.50;519779;28;1118;-70
2024/04/01 01:06:04;;;;;;;8.82;3.70;;;;;;;13.36;57.89;93581.97;519577;28;892;-70
2024/04/01 01:06:19;;;;;;;7.63;3.60;;;;;;;13.37;57.73;93582.72;519584;28;817;-70
2024/04/01 01:06:37;;;;;;;5.43;3.38;;;;;;;13.22;57.72;93555.09;518827;28;802;-70
2024/04/01 01:06:53;;;;;;;6.32;3.15;;;;;;;13.36;57.72;93570.16;517636;28;860;-70
2024/04/01 01:07:09;;;;;;;5.05;2.67;;;;;;;13.36;57.67;93570.16;515611;28;1145;-70
2024/04/01 01:07:24;;;;;;;5.03;2.57;;;;;;;13.35;58.03;93574.97;518892;28;785;-70
2024/04/01 01:07:40;;;;;;;5.22;2.53;;;;;;;13.34;58.01;93573.50;517573;28;812;-70
2024/04/01 01:07:55;;;;;;;4.90;2.60;;;;;;;13.34;58.33;93581.81;517555;28;923;-70
2024/04/01 01:08:11;;;;;;;5.00;2.73;;;;;;;13.35;58.31;93574.97;517630;28;824;-70
2024/04/01 01:08:27;;;;;;;5.53;2.75;;;;;;;13.36;58.38;93572.94;516996;28;1717;-69
2024/04/01 01:08:43;;;;;;;6.53;2.83;;;;;;;13.37;58.53;93571.63;514587;28;769;-70
2024/04/01 01:08:59;;;;;;;6.90;3.03;;;;;;;13.36;58.61;93576.44;514982;28;932;-70
2024/04/01 01:09:15;;;;;;;5.97;2.83;;;;;;;13.37;58.46;93569.59;518136;28;804;-70
2024/04/01 01:09:31;;;;;;;6.77;3.00;;;;;;;13.39;58.39;93571.81;519503;28;792;-70
2024/04/01 01:09:48;;;;;;;6.20;2.75;;;;;;;13.37;58.49;93563.31;519686;28;1007;-70
2024/04/01 01:10:05;;;;;;;4.22;2.50;;;;;;;13.36;58.25;93564.63;519598;28;811;-70
2024/04/01 01:10:22;;;;;;;4.93;2.28;;;;;;;13.40;58.35;93570.50;519432;28;1053;-70
2024/04/01 01:10:38;;;;;;;5.30;2.58;;;;;;;13.39;58.38;93564.22;520928;28;868;-70
2024/04/01 01:10:54;;;;;;;4.50;2.83;;;;;;;13.38;58.58;93562.03;521701;28;876;-70
2024/04/01 01:11:10;;;;;;;6.50;2.87;;;;;;;13.36;58.58;93559.78;521666;28;825;-70
2024/04/01 01:11:26;;;;;;;6.30;2.70;;;;;;;13.14;58.70;93537.75;521722;28;944;-70
2024/04/01 01:11:42;;;;;;;4.25;2.45;;;;;;;13.35;58.57;93574.22;519697;28;844;-70
2024/04/01 01:11:57;;;;;;;4.03;2.53;;;;;;;13.31;58.99;93569.09;519083;28;1704;-70
2024/04/01 01:12:12;;;;;;;4.93;2.50;;;;;;;13.26;59.23;93570.03;520575;28;811;-70
2024/04/01 01:12:28;;;;;;;5.38;2.67;;;;;;;13.22;58.98;93569.69;521827;28;813;-70
2024/04/01 01:12:43;;;;;;;5.23;3.03;;;;;;;13.18;58.98;93563.06;521700;28;931;-70
2024/04/01 01:12:59;;;;;;;5.28;2.90;;;;;;;13.00;59.46;93550.38;521654;28;769;-70
2024/04/01 01:13:18;;;;;;;5.82;2.78;;;;;;;13.01;60.07;93562.94;521613;28;864;-70
2024/04/01 01:13:33;;;;;;;6.80;2.60;;;;;;;12.94;60.24;93564.44;521736;28;931;-70
2024/04/01 01:13:49;;;;;;;6.90;3.00;;;;;;;12.92;60.27;93567.03;521773;28;1203;-70
2024/04/01 01:14:05;;;;;;;8.32;3.40;;;;;;;12.94;60.32;93570.00;521759;28;1069;-70
2024/04/01 01:14:20;;;;;;;6.40;2.97;;;;;;;12.94;60.31;93567.97;521775;28;1124;-70
2024/04/01 01:14:36;;;;;;;5.80;2.67;;;;;;;12.97;60.12;93574.41;521297;28;1744;-70
2024/04/01 01:14:51;;;;;;;7.82;2.85;;;;;;;12.99;60.14;93566.28;520821;28;816;-70
2024/04/01 01:15:10;;;;;;;6.63;2.70;;;;;;;12.99;60.63;93566.28;520399;28;856;-70
2024/04/01 01:15:28;;;;;;;6.07;2.67;;;;;;;12.98;60.76;93573.09;521884;28;915;-70
2024/04/01 01:15:43;;;;;;;6.60;2.92;;;;;;;12.98;60.76;93567.56;520531;28;935;-70
2024/04/01 01:15:59;;;;;;;6.37;2.93;;;;;;;12.68;60.52;93526.88;521104;28;1101;-70
2024/04/01 01:16:14;;;;;;;6.22;3.22;;;;;;;12.99;60.58;93565.53;521668;28;911;-70
2024/04/01 01:16:30;;;;;;;6.43;3.23;;;;;;;13.00;60.52;93564.97;521760;28;1003;-70
2024/04/01 01:16:45;;;;;;;7.38;3.22;;;;;;;13.02;60.49;93570.69;521592;28;784;-70
2024/04/01 01:17:01;;;;;;;6.43;3.23;;;;;;;13.03;60.16;93572.16;521610;28;901;-70
2024/04/01 01:17:16;;;;;;;5.65;3.22;;;;;;;13.03;60.03;93571.44;521223;28;1793;-70
2024/04/01 01:17:32;;;;;;;5.83;3.00;;;;;;;12.84;60.49;93553.22;519227;28;1002;-70